sensor_id;sensor_type;location;lat;lon;timestamp;pressure;altitude;pressure_sealevel;temperature;humidity
37238;BME280;23129;49.662;8.448;2022-09-09T00:01:51;100214.94;;;17.02;98.96
37238;BME280;23129;49.662;8.448;2022-09-09T00:04:27;100212.16;;;17.04;98.85
37238;BME280;23129;49.662;8.448;2022-09-09T00:07:03;100207.66;;;17.06;98.58
37238;BME280;23129;49.662;8.448;2022-09-09T00:09:40;100195.25;;;17.06;98.81
37238;BME280;23129;49.662;8.448;2022-09-09T00:12:15;100197.59;;;17.11;98.27
37238;BME280;23129;49.662;8.448;2022-09-09T00:14:51;100196.56;;;17.14;98.33
37238;BME280;23129;49.662;8.448;2022-09-09T00:17:32;100201.03;;;17.13;98.58
37238;BME280;23129;49.662;8.448;2022-09-09T00:20:06;100199.16;;;17.15;98.49
37238;BME280;23129;49.662;8.448;2022-09-09T00:22:45;100203.44;;;17.18;98.04
37238;BME280;23129;49.662;8.448;2022-09-09T00:25:19;100192.72;;;17.19;98.20
37238;BME280;23129;49.662;8.448;2022-09-09T00:27:51;100191.78;;;17.20;98.16
37238;BME280;23129;49.662;8.448;2022-09-09T00:30:22;100191.78;;;17.20;97.88
37238;BME280;23129;49.662;8.448;2022-09-09T00:32:55;100190.84;;;17.21;97.60
37238;BME280;23129;49.662;8.448;2022-09-09T00:35:29;100197.09;;;17.20;97.99
37238;BME280;23129;49.662;8.448;2022-09-09T00:38:03;100190.06;;;17.19;98.58
37238;BME280;23129;49.662;8.448;2022-09-09T00:40:45;100183.06;;;17.18;98.95
37238;BME280;23129;49.662;8.448;2022-09-09T00:43:29;100191.97;;;17.17;99.30
37238;BME280;23129;49.662;8.448;2022-09-09T00:46:38;100200.84;;;17.16;99.51
37238;BME280;23129;49.662;8.448;2022-09-09T00:49:19;100192.16;;;17.14;99.60
37238;BME280;23129;49.662;8.448;2022-09-09T00:51:59;100192.31;;;17.11;99.65
37238;BME280;23129;49.662;8.448;2022-09-09T00:54:40;100195.13;;;17.08;99.44
37238;BME280;23129;49.662;8.448;2022-09-09T00:57:25;100199.88;;;17.03;99.55
37238;BME280;23129;49.662;8.448;2022-09-09T01:00:19;100202.72;;;17.00;100.00
37238;BME280;23129;49.662;8.448;2022-09-09T01:03:07;100197.66;;;16.95;99.67
37238;BME280;23129;49.662;8.448;2022-09-09T01:05:46;100197.66;;;16.95;99.99
37238;BME280;23129;49.662;8.448;2022-09-09T01:08:35;100191.63;;;16.93;99.98
37238;BME280;23129;49.662;8.448;2022-09-09T01:11:10;100196.81;;;16.95;99.70
37238;BME280;23129;49.662;8.448;2022-09-09T01:13:46;100189.63;;;16.97;99.46
37238;BME280;23129;49.662;8.448;2022-09-09T01:16:15;100186.13;;;16.96;99.74
37238;BME280;23129;49.662;8.448;2022-09-09T01:18:48;100187.91;;;16.96;99.77
37238;BME280;23129;49.662;8.448;2022-09-09T01:21:27;100191.44;;;16.96;99.72
37238;BME280;23129;49.662;8.448;2022-09-09T01:24:17;100179.22;;;16.94;100.00
37238;BME280;23129;49.662;8.448;2022-09-09T01:27:07;100177.50;;;16.93;99.81
37238;BME280;23129;49.662;8.448;2022-09-09T01:29:36;100184.69;;;16.91;100.00
37238;BME280;23129;49.662;8.448;2022-09-09T01:32:40;100189.13;;;16.90;100.00
37238;BME280;23129;49.662;8.448;2022-09-09T01:35:15;100193.56;;;16.89;99.72
37238;BME280;23129;49.662;8.448;2022-09-09T01:37:47;100194.41;;;16.90;99.72
37238;BME280;23129;49.662;8.448;2022-09-09T01:40:16;100202.28;;;16.92;99.19
37238;BME280;23129;49.662;8.448;2022-09-09T01:42:48;100189.81;;;16.94;99.18
37238;BME280;23129;49.662;8.448;2022-09-09T01:45:17;100187.06;;;16.95;98.86
37238;BME280;23129;49.662;8.448;2022-09-09T01:47:46;100182.63;;;16.96;99.45
37238;BME280;23129;49.662;8.448;2022-09-09T01:50:32;100196.81;;;16.95;98.98
37238;BME280;23129;49.662;8.448;2022-09-09T01:53:02;100194.28;;;16.93;99.40
37238;BME280;23129;49.662;8.448;2022-09-09T01:55:39;100198.69;;;16.93;99.11
37238;BME280;23129;49.662;8.448;2022-09-09T01:58:24;100190.00;;;16.91;98.99
37238;BME280;23129;49.662;8.448;2022-09-09T02:01:06;100190.84;;;16.91;98.96
37238;BME280;23129;49.662;8.448;2022-09-09T02:03:38;100180.44;;;16.88;98.80
37238;BME280;23129;49.662;8.448;2022-09-09T02:06:26;100188.44;;;16.86;98.33
37238;BME280;23129;49.662;8.448;2022-09-09T02:09:05;100200.94;;;16.84;98.45
37238;BME280;23129;49.662;8.448;2022-09-09T02:11:35;100202.06;;;16.80;98.96
37238;BME280;23129;49.662;8.448;2022-09-09T02:14:22;100204.88;;;16.77;98.61
37238;BME280;23129;49.662;8.448;2022-09-09T02:16:55;100207.63;;;16.76;99.15
37238;BME280;23129;49.662;8.448;2022-09-09T02:19:38;100197.94;;;16.75;99.30
37238;BME280;23129;49.662;8.448;2022-09-09T02:22:22;100205.03;;;16.74;98.97
37238;BME280;23129;49.662;8.448;2022-09-09T02:24:53;100212.22;;;16.72;99.33
37238;BME280;23129;49.662;8.448;2022-09-09T02:27:27;100207.84;;;16.71;99.34
37238;BME280;23129;49.662;8.448;2022-09-09T02:29:58;100204.44;;;16.69;99.40
37238;BME280;23129;49.662;8.448;2022-09-09T02:32:40;100203.69;;;16.67;99.83
37238;BME280;23129;49.662;8.448;2022-09-09T02:35:16;100199.31;;;16.66;99.74
37238;BME280;23129;49.662;8.448;2022-09-09T02:37:46;100196.66;;;16.66;99.76
37238;BME280;23129;49.662;8.448;2022-09-09T02:40:16;100201.94;;;16.66;99.89
37238;BME280;23129;49.662;8.448;2022-09-09T02:42:49;100199.31;;;16.66;99.50
37238;BME280;23129;49.662;8.448;2022-09-09T02:45:25;100202.84;;;16.66;99.84
37238;BME280;23129;49.662;8.448;2022-09-09T02:48:07;100197.53;;;16.66;99.76
37238;BME280;23129;49.662;8.448;2022-09-09T02:50:43;100199.13;;;16.69;100.00
37238;BME280;23129;49.662;8.448;2022-09-09T02:53:18;100191.09;;;16.71;99.67
37238;BME280;23129;49.662;8.448;2022-09-09T02:55:54;100188.22;;;16.75;99.54
37238;BME280;23129;49.662;8.448;2022-09-09T02:58:25;100179.16;;;16.79;98.71
37238;BME280;23129;49.662;8.448;2022-09-09T03:01:00;100183.34;;;16.83;98.37
37238;BME280;23129;49.662;8.448;2022-09-09T03:03:30;100170.88;;;16.85;98.13
37238;BME280;23129;49.662;8.448;2022-09-09T03:06:03;100175.13;;;16.88;97.94
37238;BME280;23129;49.662;8.448;2022-09-09T03:08:32;100178.53;;;16.90;97.62
37238;BME280;23129;49.662;8.448;2022-09-09T03:11:01;100180.25;;;16.91;97.66
37238;BME280;23129;49.662;8.448;2022-09-09T03:13:33;100186.41;;;16.92;97.19
37238;BME280;23129;49.662;8.448;2022-09-09T03:16:03;100186.41;;;16.92;97.24
37238;BME280;23129;49.662;8.448;2022-09-09T03:18:38;100181.09;;;16.92;97.50
37238;BME280;23129;49.662;8.448;2022-09-09T03:21:06;100190.91;;;16.89;97.58
37238;BME280;23129;49.662;8.448;2022-09-09T03:23:36;100193.75;;;16.86;97.90
37238;BME280;23129;49.662;8.448;2022-09-09T03:26:05;100193.94;;;16.83;98.01
37238;BME280;23129;49.662;8.448;2022-09-09T03:28:40;100197.88;;;16.76;97.31
37238;BME280;23129;49.662;8.448;2022-09-09T03:31:10;100203.69;;;16.67;97.63
37238;BME280;23129;49.662;8.448;2022-09-09T03:33:41;100197.00;;;16.60;98.14
37238;BME280;23129;49.662;8.448;2022-09-09T03:36:12;100195.47;;;16.56;98.20
37238;BME280;23129;49.662;8.448;2022-09-09T03:38:41;100195.66;;;16.53;98.20
37238;BME280;23129;49.662;8.448;2022-09-09T03:41:10;100197.34;;;16.54;98.19
37238;BME280;23129;49.662;8.448;2022-09-09T03:43:40;100195.66;;;16.53;98.67
37238;BME280;23129;49.662;8.448;2022-09-09T03:46:10;100203.53;;;16.54;98.56
37238;BME280;23129;49.662;8.448;2022-09-09T03:48:39;100192.06;;;16.54;98.31
37238;BME280;23129;49.662;8.448;2022-09-09T03:51:07;100194.63;;;16.55;98.46
37238;BME280;23129;49.662;8.448;2022-09-09T03:53:35;100191.22;;;16.53;98.89
37238;BME280;23129;49.662;8.448;2022-09-09T03:56:06;100192.22;;;16.51;98.51
37238;BME280;23129;49.662;8.448;2022-09-09T03:58:36;100188.91;;;16.47;98.97
37238;BME280;23129;49.662;8.448;2022-09-09T04:01:10;100197.88;;;16.44;98.83
37238;BME280;23129;49.662;8.448;2022-09-09T04:03:42;100188.41;;;16.40;99.39
37238;BME280;23129;49.662;8.448;2022-09-09T04:06:13;100184.25;;;16.36;99.14
37238;BME280;23129;49.662;8.448;2022-09-09T04:08:45;100195.00;;;16.33;99.15
37238;BME280;23129;49.662;8.448;2022-09-09T04:11:15;100187.19;;;16.30;99.29
37238;BME280;23129;49.662;8.448;2022-09-09T04:13:45;100183.97;;;16.25;99.12
37238;BME280;23129;49.662;8.448;2022-09-09T04:16:15;100189.44;;;16.22;99.42
37238;BME280;23129;49.662;8.448;2022-09-09T04:18:44;100199.25;;;16.20;99.37
37238;BME280;23129;49.662;8.448;2022-09-09T04:21:14;100204.72;;;16.17;98.92
37238;BME280;23129;49.662;8.448;2022-09-09T04:23:43;100195.06;;;16.16;98.96
37238;BME280;23129;49.662;8.448;2022-09-09T04:26:14;100198.63;;;16.15;99.10
37238;BME280;23129;49.662;8.448;2022-09-09T04:28:44;100197.72;;;16.16;98.73
37238;BME280;23129;49.662;8.448;2022-09-09T04:31:20;100191.59;;;16.15;98.71
37238;BME280;23129;49.662;8.448;2022-09-09T04:33:53;100194.22;;;16.15;98.72
37238;BME280;23129;49.662;8.448;2022-09-09T04:36:22;100196.00;;;16.15;98.88
37238;BME280;23129;49.662;8.448;2022-09-09T04:38:54;100202.16;;;16.15;99.15
37238;BME280;23129;49.662;8.448;2022-09-09T04:41:23;100209.22;;;16.15;99.04
37238;BME280;23129;49.662;8.448;2022-09-09T04:43:53;100218.88;;;16.16;99.12
37238;BME280;23129;49.662;8.448;2022-09-09T04:46:25;100224.00;;;16.19;98.91
37238;BME280;23129;49.662;8.448;2022-09-09T04:48:53;100220.41;;;16.20;99.29
37238;BME280;23129;49.662;8.448;2022-09-09T04:51:26;100223.84;;;16.22;99.20
37238;BME280;23129;49.662;8.448;2022-09-09T04:53:55;100228.19;;;16.23;99.18
37238;BME280;23129;49.662;8.448;2022-09-09T04:56:24;100213.09;;;16.25;99.13
37238;BME280;23129;49.662;8.448;2022-09-09T04:58:56;100230.66;;;16.26;99.22
37238;BME280;23129;49.662;8.448;2022-09-09T05:01:39;100218.97;;;16.30;98.37
37238;BME280;23129;49.662;8.448;2022-09-09T05:04:08;100231.19;;;16.33;98.44
37238;BME280;23129;49.662;8.448;2022-09-09T05:06:36;100225.88;;;16.33;97.98
37238;BME280;23129;49.662;8.448;2022-09-09T05:09:05;100223.16;;;16.34;98.53
37238;BME280;23129;49.662;8.448;2022-09-09T05:11:34;100231.00;;;16.36;98.40
37238;BME280;23129;49.662;8.448;2022-09-09T05:14:22;100244.34;;;16.34;98.59
37238;BME280;23129;49.662;8.448;2022-09-09T05:16:52;100239.03;;;16.34;98.49
37238;BME280;23129;49.662;8.448;2022-09-09T05:19:22;100239.03;;;16.34;98.57
37238;BME280;23129;49.662;8.448;2022-09-09T05:21:52;100244.34;;;16.34;97.57
37238;BME280;23129;49.662;8.448;2022-09-09T05:24:27;100250.81;;;16.29;98.27
37238;BME280;23129;49.662;8.448;2022-09-09T05:26:57;100251.66;;;16.29;98.05
37238;BME280;23129;49.662;8.448;2022-09-09T05:29:28;100249.97;;;16.28;98.30
37238;BME280;23129;49.662;8.448;2022-09-09T05:31:58;100249.81;;;16.31;98.65
37238;BME280;23129;49.662;8.448;2022-09-09T05:34:27;100251.34;;;16.35;98.83
37238;BME280;23129;49.662;8.448;2022-09-09T05:36:56;100257.25;;;16.40;98.09
37238;BME280;23129;49.662;8.448;2022-09-09T05:39:26;100257.84;;;16.46;98.20
37238;BME280;23129;49.662;8.448;2022-09-09T05:41:54;100256.72;;;16.50;98.00
37238;BME280;23129;49.662;8.448;2022-09-09T05:44:23;100267.16;;;16.53;98.13
37238;BME280;23129;49.662;8.448;2022-09-09T05:46:54;100261.69;;;16.56;98.00
37238;BME280;23129;49.662;8.448;2022-09-09T05:49:25;100265.84;;;16.60;97.67
37238;BME280;23129;49.662;8.448;2022-09-09T05:51:54;100269.28;;;16.62;97.48
37238;BME280;23129;49.662;8.448;2022-09-09T05:54:23;100254.16;;;16.64;97.29
37238;BME280;23129;49.662;8.448;2022-09-09T05:56:54;100257.56;;;16.66;97.37
37238;BME280;23129;49.662;8.448;2022-09-09T05:59:23;100265.34;;;16.69;97.23
37238;BME280;23129;49.662;8.448;2022-09-09T06:01:54;100266.91;;;16.73;97.34
37238;BME280;23129;49.662;8.448;2022-09-09T06:04:32;100265.91;;;16.76;97.14
37238;BME280;23129;49.662;8.448;2022-09-09T06:07:01;100264.88;;;16.78;97.10
37238;BME280;23129;49.662;8.448;2022-09-09T06:09:30;100258.63;;;16.79;97.56
37238;BME280;23129;49.662;8.448;2022-09-09T06:11:58;100264.72;;;16.81;96.96
37238;BME280;23129;49.662;8.448;2022-09-09T06:14:27;100265.56;;;16.82;96.89
37238;BME280;23129;49.662;8.448;2022-09-09T06:16:58;100259.22;;;16.84;96.96
37238;BME280;23129;49.662;8.448;2022-09-09T06:19:32;100260.75;;;16.88;96.94
37238;BME280;23129;49.662;8.448;2022-09-09T06:22:01;100265.69;;;16.95;97.27
37238;BME280;23129;49.662;8.448;2022-09-09T06:24:32;100274.06;;;17.03;97.76
37238;BME280;23129;49.662;8.448;2022-09-09T06:27:02;100268.25;;;17.12;97.59
37238;BME280;23129;49.662;8.448;2022-09-09T06:29:34;100262.41;;;17.21;97.26
37238;BME280;23129;49.662;8.448;2022-09-09T06:32:03;100270.78;;;17.29;96.36
37238;BME280;23129;49.662;8.448;2022-09-09T06:34:33;100273.97;;;17.34;96.36
37238;BME280;23129;49.662;8.448;2022-09-09T06:37:02;100263.19;;;17.38;96.12
37238;BME280;23129;49.662;8.448;2022-09-09T06:39:46;100276.19;;;17.42;96.00
37238;BME280;23129;49.662;8.448;2022-09-09T06:42:15;100278.75;;;17.44;96.31
37238;BME280;23129;49.662;8.448;2022-09-09T06:44:49;100276.69;;;17.49;95.49
37238;BME280;23129;49.662;8.448;2022-09-09T06:47:31;100279.94;;;17.54;95.30
37238;BME280;23129;49.662;8.448;2022-09-09T06:50:02;100262.69;;;17.61;94.88
37238;BME280;23129;49.662;8.448;2022-09-09T06:52:34;100263.28;;;17.66;95.25
37238;BME280;23129;49.662;8.448;2022-09-09T06:55:03;100268.22;;;17.72;95.49
37238;BME280;23129;49.662;8.448;2022-09-09T06:57:33;100266.31;;;17.74;95.09
37238;BME280;23129;49.662;8.448;2022-09-09T07:00:18;100262.72;;;17.75;95.59
37238;BME280;23129;49.662;8.448;2022-09-09T07:02:47;100264.41;;;17.76;94.73
37238;BME280;23129;49.662;8.448;2022-09-09T07:05:19;100261.72;;;17.78;94.12
37238;BME280;23129;49.662;8.448;2022-09-09T07:07:48;100267.88;;;17.78;94.68
37238;BME280;23129;49.662;8.448;2022-09-09T07:10:18;100257.06;;;17.82;94.77
37238;BME280;23129;49.662;8.448;2022-09-09T07:12:51;100258.75;;;17.83;93.54
37238;BME280;23129;49.662;8.448;2022-09-09T07:15:21;100268.72;;;17.79;94.50
37238;BME280;23129;49.662;8.448;2022-09-09T07:17:50;100281.72;;;17.84;94.17
37238;BME280;23129;49.662;8.448;2022-09-09T07:20:20;100280.69;;;17.86;93.82
37238;BME280;23129;49.662;8.448;2022-09-09T07:22:49;100271.09;;;17.84;94.05
37238;BME280;23129;49.662;8.448;2022-09-09T07:25:18;100281.72;;;17.84;94.57
37238;BME280;23129;49.662;8.448;2022-09-09T07:27:48;100278.69;;;17.90;94.00
37238;BME280;23129;49.662;8.448;2022-09-09T07:30:16;100269.19;;;18.00;93.98
37238;BME280;23129;49.662;8.448;2022-09-09T07:32:54;100271.09;;;18.12;93.15
37238;BME280;23129;49.662;8.448;2022-09-09T07:35:25;100275.81;;;18.21;93.17
37238;BME280;23129;49.662;8.448;2022-09-09T07:37:54;100285.88;;;18.31;92.61
37238;BME280;23129;49.662;8.448;2022-09-09T07:40:23;100279.31;;;18.36;93.30
37238;BME280;23129;49.662;8.448;2022-09-09T07:42:52;100283.59;;;18.39;93.29
37238;BME280;23129;49.662;8.448;2022-09-09T07:45:21;100287.78;;;18.43;92.45
37238;BME280;23129;49.662;8.448;2022-09-09T07:47:50;100285.78;;;18.46;92.26
37238;BME280;23129;49.662;8.448;2022-09-09T07:50:20;100279.22;;;18.52;91.17
37238;BME280;23129;49.662;8.448;2022-09-09T07:52:51;100285.28;;;18.54;90.89
37238;BME280;23129;49.662;8.448;2022-09-09T07:55:20;100286.22;;;18.82;91.05
37238;BME280;23129;49.662;8.448;2022-09-09T07:57:52;100287.63;;;19.54;91.19
37238;BME280;23129;49.662;8.448;2022-09-09T08:00:22;100291.16;;;20.32;89.99
37238;BME280;23129;49.662;8.448;2022-09-09T08:02:54;100280.34;;;20.95;87.59
37238;BME280;23129;49.662;8.448;2022-09-09T08:05:23;100268.47;;;21.59;85.94
37238;BME280;23129;49.662;8.448;2022-09-09T08:07:53;100274.25;;;21.88;84.85
37238;BME280;23129;49.662;8.448;2022-09-09T08:10:22;100281.38;;;21.76;84.11
37238;BME280;23129;49.662;8.448;2022-09-09T08:12:53;100293.53;;;21.80;82.82
37238;BME280;23129;49.662;8.448;2022-09-09T08:15:42;100284.22;;;21.51;82.99
37238;BME280;23129;49.662;8.448;2022-09-09T08:18:12;100283.16;;;21.29;82.10
37238;BME280;23129;49.662;8.448;2022-09-09T08:20:40;100297.13;;;21.09;81.75
37238;BME280;23129;49.662;8.448;2022-09-09T08:23:11;100288.66;;;20.91;83.60
37238;BME280;23129;49.662;8.448;2022-09-09T08:25:39;100296.50;;;20.81;83.59
37238;BME280;23129;49.662;8.448;2022-09-09T08:28:07;100291.75;;;20.73;83.87
37238;BME280;23129;49.662;8.448;2022-09-09T08:30:37;100298.19;;;20.58;82.80
37238;BME280;23129;49.662;8.448;2022-09-09T08:33:06;100297.53;;;20.42;83.76
37238;BME280;23129;49.662;8.448;2022-09-09T08:35:35;100307.25;;;20.30;83.41
37238;BME280;23129;49.662;8.448;2022-09-09T08:38:03;100305.22;;;20.21;83.67
37238;BME280;23129;49.662;8.448;2022-09-09T08:40:42;100308.31;;;20.15;84.92
37238;BME280;23129;49.662;8.448;2022-09-09T08:43:13;100307.69;;;20.24;84.25
37238;BME280;23129;49.662;8.448;2022-09-09T08:45:55;100304.16;;;20.36;83.34
37238;BME280;23129;49.662;8.448;2022-09-09T08:48:47;100315.66;;;20.49;83.21
37238;BME280;23129;49.662;8.448;2022-09-09T08:51:20;100310.50;;;20.72;83.43
37238;BME280;23129;49.662;8.448;2022-09-09T08:53:49;100324.97;;;21.41;82.37
37238;BME280;23129;49.662;8.448;2022-09-09T08:56:28;100308.63;;;22.15;81.58
37238;BME280;23129;49.662;8.448;2022-09-09T08:59:01;100305.25;;;22.58;80.04
37238;BME280;23129;49.662;8.448;2022-09-09T09:01:55;100313.91;;;23.16;79.96
37238;BME280;23129;49.662;8.448;2022-09-09T09:04:56;100284.25;;;23.61;77.90
37238;BME280;23129;49.662;8.448;2022-09-09T09:07:42;100293.28;;;24.02;74.79
37238;BME280;23129;49.662;8.448;2022-09-09T09:10:25;100281.78;;;24.42;73.56
37238;BME280;23129;49.662;8.448;2022-09-09T09:13:17;100319.50;;;24.29;74.45
37238;BME280;23129;49.662;8.448;2022-09-09T09:15:54;100291.75;;;23.46;75.17
37238;BME280;23129;49.662;8.448;2022-09-09T09:18:27;100307.91;;;22.58;77.70
37238;BME280;23129;49.662;8.448;2022-09-09T09:21:02;100309.13;;;21.62;79.37
37238;BME280;23129;49.662;8.448;2022-09-09T09:23:40;100306.38;;;20.68;81.81
37238;BME280;23129;49.662;8.448;2022-09-09T09:26:10;100311.00;;;20.02;84.06
37238;BME280;23129;49.662;8.448;2022-09-09T09:28:41;100314.72;;;19.47;86.19
37238;BME280;23129;49.662;8.448;2022-09-09T09:31:14;100318.44;;;18.90;87.40
37238;BME280;23129;49.662;8.448;2022-09-09T09:33:49;100313.78;;;18.38;90.09
37238;BME280;23129;49.662;8.448;2022-09-09T09:36:25;100319.25;;;18.06;92.55
37238;BME280;23129;49.662;8.448;2022-09-09T09:39:03;100311.63;;;17.86;94.47
37238;BME280;23129;49.662;8.448;2022-09-09T09:41:53;100307.59;;;18.09;96.70
37238;BME280;23129;49.662;8.448;2022-09-09T09:44:26;100295.69;;;18.71;98.03
37238;BME280;23129;49.662;8.448;2022-09-09T09:47:07;100288.56;;;19.53;98.57
37238;BME280;23129;49.662;8.448;2022-09-09T09:49:37;100292.69;;;19.72;97.50
37238;BME280;23129;49.662;8.448;2022-09-09T09:52:12;100290.75;;;19.74;96.86
37238;BME280;23129;49.662;8.448;2022-09-09T09:54:45;100285.63;;;20.22;95.45
37238;BME280;23129;49.662;8.448;2022-09-09T09:57:16;100294.28;;;20.75;94.22
37238;BME280;23129;49.662;8.448;2022-09-09T09:59:47;100295.28;;;20.98;93.26
37238;BME280;23129;49.662;8.448;2022-09-09T10:02:24;100286.13;;;21.37;92.35
37238;BME280;23129;49.662;8.448;2022-09-09T10:05:03;100295.00;;;21.84;91.31
37238;BME280;23129;49.662;8.448;2022-09-09T10:07:34;100295.50;;;22.01;90.04
37238;BME280;23129;49.662;8.448;2022-09-09T10:10:08;100301.41;;;22.17;89.74
37238;BME280;23129;49.662;8.448;2022-09-09T10:12:53;100286.25;;;22.72;90.55
37238;BME280;23129;49.662;8.448;2022-09-09T10:15:38;100274.50;;;23.18;85.98
37238;BME280;23129;49.662;8.448;2022-09-09T10:18:35;100282.16;;;23.44;85.11
37238;BME280;23129;49.662;8.448;2022-09-09T10:21:38;100280.06;;;23.68;84.47
37238;BME280;23129;49.662;8.448;2022-09-09T10:25:00;100281.66;;;23.92;82.28
37238;BME280;23129;49.662;8.448;2022-09-09T10:27:40;100270.19;;;23.69;79.13
37238;BME280;23129;49.662;8.448;2022-09-09T10:30:16;100269.66;;;23.54;79.25
37238;BME280;23129;49.662;8.448;2022-09-09T10:32:49;100273.41;;;23.42;79.17
37238;BME280;23129;49.662;8.448;2022-09-09T10:35:30;100261.25;;;23.38;76.54
37238;BME280;23129;49.662;8.448;2022-09-09T10:38:16;100269.25;;;23.49;76.76
37238;BME280;23129;49.662;8.448;2022-09-09T10:41:16;100260.88;;;23.63;78.34
37238;BME280;23129;49.662;8.448;2022-09-09T10:47:13;100257.19;;;24.06;77.13
37238;BME280;23129;49.662;8.448;2022-09-09T10:53:00;100262.78;;;24.34;74.71
37238;BME280;23129;49.662;8.448;2022-09-09T10:55:38;100246.94;;;24.52;76.12
37238;BME280;23129;49.662;8.448;2022-09-09T10:58:14;100256.16;;;24.69;76.74
37238;BME280;23129;49.662;8.448;2022-09-09T11:00:48;100245.88;;;24.83;74.71
37238;BME280;23129;49.662;8.448;2022-09-09T11:03:27;100257.44;;;24.94;74.66
37238;BME280;23129;49.662;8.448;2022-09-09T11:06:03;100249.53;;;25.12;74.11
37238;BME280;23129;49.662;8.448;2022-09-09T11:08:36;100247.03;;;25.20;72.87
37238;BME280;23129;49.662;8.448;2022-09-09T11:11:12;100273.53;;;24.84;73.90
37238;BME280;23129;49.662;8.448;2022-09-09T11:13:48;100237.38;;;24.69;75.61
37238;BME280;23129;49.662;8.448;2022-09-09T11:16:25;100238.38;;;24.87;74.86
37238;BME280;23129;49.662;8.448;2022-09-09T11:19:03;100241.06;;;25.06;75.13
37238;BME280;23129;49.662;8.448;2022-09-09T11:21:37;100241.66;;;25.30;73.50
37238;BME280;23129;49.662;8.448;2022-09-09T11:24:14;100252.97;;;25.14;75.65
37238;BME280;23129;49.662;8.448;2022-09-09T11:26:47;100228.69;;;25.25;73.55
37238;BME280;23129;49.662;8.448;2022-09-09T11:36:52;100245.16;;;24.72;76.55
37238;BME280;23129;49.662;8.448;2022-09-09T11:39:48;100230.03;;;24.71;75.77
37238;BME280;23129;49.662;8.448;2022-09-09T11:42:24;100231.69;;;24.52;72.61
37238;BME280;23129;49.662;8.448;2022-09-09T11:44:53;100232.72;;;24.21;73.70
37238;BME280;23129;49.662;8.448;2022-09-09T11:47:24;100240.34;;;23.95;74.96
37238;BME280;23129;49.662;8.448;2022-09-09T11:50:09;100247.00;;;23.69;76.67
37238;BME280;23129;49.662;8.448;2022-09-09T11:52:43;100236.31;;;23.58;77.57
37238;BME280;23129;49.662;8.448;2022-09-09T11:55:27;100262.69;;;23.42;76.92
37238;BME280;23129;49.662;8.448;2022-09-09T11:57:58;100258.09;;;23.33;76.86
37238;BME280;23129;49.662;8.448;2022-09-09T12:00:36;100237.81;;;23.30;76.41
37238;BME280;23129;49.662;8.448;2022-09-09T12:03:05;100266.25;;;23.63;76.30
37238;BME280;23129;49.662;8.448;2022-09-09T12:05:38;100263.03;;;23.90;74.19
37238;BME280;23129;49.662;8.448;2022-09-09T12:08:10;100274.59;;;23.91;75.48
37238;BME280;23129;49.662;8.448;2022-09-09T12:10:40;100240.75;;;23.90;73.52
37238;BME280;23129;49.662;8.448;2022-09-09T12:13:16;100263.34;;;23.97;71.41
37238;BME280;23129;49.662;8.448;2022-09-09T12:15:51;100266.75;;;23.99;73.96
37238;BME280;23129;49.662;8.448;2022-09-09T12:18:23;100276.44;;;23.90;73.36
37238;BME280;23129;49.662;8.448;2022-09-09T12:21:00;100279.84;;;23.72;74.90
37238;BME280;23129;49.662;8.448;2022-09-09T12:23:41;100286.41;;;23.46;75.58
37238;BME280;23129;49.662;8.448;2022-09-09T12:26:27;100292.97;;;23.21;74.55
37238;BME280;23129;49.662;8.448;2022-09-09T12:29:11;100298.03;;;23.04;71.79
37238;BME280;23129;49.662;8.448;2022-09-09T12:31:46;100310.44;;;22.82;73.39
37238;BME280;23129;49.662;8.448;2022-09-09T12:34:29;100285.44;;;22.72;72.85
37238;BME280;23129;49.662;8.448;2022-09-09T12:37:04;100290.88;;;22.70;73.53
37238;BME280;23129;49.662;8.448;2022-09-09T12:39:36;100289.19;;;22.58;72.65
37238;BME280;23129;49.662;8.448;2022-09-09T12:42:18;100277.19;;;22.52;75.33
37238;BME280;23129;49.662;8.448;2022-09-09T12:44:55;100262.63;;;22.45;77.08
37238;BME280;23129;49.662;8.448;2022-09-09T12:47:36;100260.44;;;22.39;77.73
37238;BME280;23129;49.662;8.448;2022-09-09T12:50:17;100265.69;;;22.29;79.05
37238;BME280;23129;49.662;8.448;2022-09-09T12:52:48;100255.00;;;22.18;78.19
37238;BME280;23129;49.662;8.448;2022-09-09T12:55:23;100262.47;;;22.13;79.63
37238;BME280;23129;49.662;8.448;2022-09-09T12:57:52;100266.84;;;22.03;80.64
37238;BME280;23129;49.662;8.448;2022-09-09T13:00:23;100262.84;;;21.97;80.84
37238;BME280;23129;49.662;8.448;2022-09-09T13:02:54;100271.69;;;21.75;81.57
37238;BME280;23129;49.662;8.448;2022-09-09T13:05:24;100279.84;;;20.54;80.66
37238;BME280;23129;49.662;8.448;2022-09-09T13:08:01;100266.44;;;19.13;84.97
37238;BME280;23129;49.662;8.448;2022-09-09T13:10:33;100275.44;;;18.28;88.25
37238;BME280;23129;49.662;8.448;2022-09-09T13:13:23;100271.47;;;17.77;90.80
37238;BME280;23129;49.662;8.448;2022-09-09T13:15:56;100264.97;;;17.53;93.03
37238;BME280;23129;49.662;8.448;2022-09-09T13:18:29;100264.16;;;17.37;94.78
37238;BME280;23129;49.662;8.448;2022-09-09T13:20:58;100276.06;;;17.29;95.99
37238;BME280;23129;49.662;8.448;2022-09-09T13:23:30;100282.59;;;17.24;96.92
37238;BME280;23129;49.662;8.448;2022-09-09T13:26:04;100275.00;;;17.18;97.21
37238;BME280;23129;49.662;8.448;2022-09-09T13:28:34;100264.63;;;17.13;97.50
37238;BME280;23129;49.662;8.448;2022-09-09T13:31:04;100246.19;;;17.11;97.81
37238;BME280;23129;49.662;8.448;2022-09-09T13:33:35;100239.53;;;17.34;99.42
37238;BME280;23129;49.662;8.448;2022-09-09T13:36:07;100244.25;;;17.74;100.00
37238;BME280;23129;49.662;8.448;2022-09-09T13:38:38;100260.84;;;18.06;100.00
37238;BME280;23129;49.662;8.448;2022-09-09T13:41:10;100263.31;;;18.23;100.00
37238;BME280;23129;49.662;8.448;2022-09-09T13:43:44;100277.69;;;18.77;100.00